Astor — C6JR3 — position and weather

sailwx.info

Track history (hours):
 
Tides and Currents Weather Stations Pressure Air Temp Water Temp Dewpoint Dewpoint Depression Visibility Wind Speed Wind Dir Waves Ship Positions

Astor

Operator: Passat Ship Management Ltd

Last reported at 2018-Jan-09 17:21 UTC. Time now 2018-Jan-24 01:53 UTC.
Position S 19°50' E 113°45'.
Warning: this ship's position is 14 days out of date.

Length 176 m; draft 6.2 m.

Type: Ship. MMSI: 308214000.

Date/timePositionNaut miles runAvg speedWind from/ knotsBaromVisibWave heightAir tempDewpointWater temp
2018-Jan-09 17:21S 19°50' E 113°45'914.0
2018-Jan-09 16:42S 19°41' E 113°46'814.2
2018-Jan-09 16:09S 19°34' E 113°48'214.3
2018-Jan-09 15:59S 19°31' E 113°48'714.3
2018-Jan-09 15:30S 19°24' E 113°49'  
2018-Jan-05 17:17S 14°26' E 114°47'12312.9
2018-Jan-05 07:43S 16°27' E 114°24'1313.9
2018-Jan-05 06:45S 16°40' E 114°22'8313.0
2018-Jan-05 00:23S 18°02' E 114°06'1912.7
2018-Jan-04 22:54S 18°20' E 114°03'2911.7
2018-Jan-04 20:25S 18°49' E 113°57'1012.7
2018-Jan-04 19:40S 18°58' E 113°56'1412.3
2018-Jan-04 18:32S 19°12' E 113°53'212.6
2018-Jan-04 18:24S 19°14' E 113°53'2812.8
2018-Jan-04 16:12S 19°41' E 113°48'713.6
2018-Jan-04 15:39S 19°49' E 113°46'310.7
2018-Jan-04 15:23S 19°52' E 113°46'614.1
2018-Jan-04 14:58S 19°57' E 113°45'712.0
2018-Jan-04 14:24S 20°04' E 113°43'2113.4
2018-Jan-04 12:49S 20°25' E 113°40'411.0
2018-Jan-04 12:27S 20°29' E 113°39'813.9
2018-Jan-04 11:55S 20°36' E 113°37'612.5
2018-Jan-04 11:25S 20°42' E 113°36'  
Track history (hours):
 
Tides and Currents Weather Stations Pressure Air Temp Water Temp Dewpoint Dewpoint Depression Visibility Wind Speed Wind Dir Waves Ship Positions

Astor

Operator: Passat Ship Management Ltd

Last reported at 2018-Jan-09 17:21 UTC. Time now 2018-Jan-24 01:53 UTC.
Position S 19°50' E 113°45'.
Warning: this ship's position is 14 days out of date.

Length 176 m; draft 6.2 m.

Type: Ship. MMSI: 308214000.

Date/timePositionNaut miles runAvg speedWind from/ knotsBaromVisibWave heightAir tempDewpointWater temp
2018-Jan-09 17:21S 19°50' E 113°45'914.0
2018-Jan-09 16:42S 19°41' E 113°46'814.2
2018-Jan-09 16:09S 19°34' E 113°48'214.3
2018-Jan-09 15:59S 19°31' E 113°48'714.3
2018-Jan-09 15:30S 19°24' E 113°49'  
2018-Jan-05 17:17S 14°26' E 114°47'12312.9
2018-Jan-05 07:43S 16°27' E 114°24'1313.9
2018-Jan-05 06:45S 16°40' E 114°22'8313.0
2018-Jan-05 00:23S 18°02' E 114°06'1912.7
2018-Jan-04 22:54S 18°20' E 114°03'2911.7
2018-Jan-04 20:25S 18°49' E 113°57'1012.7
2018-Jan-04 19:40S 18°58' E 113°56'1412.3
2018-Jan-04 18:32S 19°12' E 113°53'212.6
2018-Jan-04 18:24S 19°14' E 113°53'2812.8
2018-Jan-04 16:12S 19°41' E 113°48'713.6
2018-Jan-04 15:39S 19°49' E 113°46'310.7
2018-Jan-04 15:23S 19°52' E 113°46'614.1
2018-Jan-04 14:58S 19°57' E 113°45'712.0
2018-Jan-04 14:24S 20°04' E 113°43'2113.4
2018-Jan-04 12:49S 20°25' E 113°40'411.0
2018-Jan-04 12:27S 20°29' E 113°39'813.9
2018-Jan-04 11:55S 20°36' E 113°37'612.5
2018-Jan-04 11:25S 20°42' E 113°36'  

Dump ship's entire track history